sensor_id;sensor_type;location;lat;lon;timestamp;temperature;humidity
46976;DHT22;32724;51.094;6.996;2022-10-17T00:01:25;15.70;99.90
46976;DHT22;32724;51.094;6.996;2022-10-17T00:03:50;15.70;99.90
46976;DHT22;32724;51.094;6.996;2022-10-17T00:06:16;15.70;99.90
46976;DHT22;32724;51.094;6.996;2022-10-17T00:08:41;15.70;99.90
46976;DHT22;32724;51.094;6.996;2022-10-17T00:11:17;15.70;99.90
46976;DHT22;32724;51.094;6.996;2022-10-17T00:13:45;15.70;99.90
46976;DHT22;32724;51.094;6.996;2022-10-17T00:16:10;15.80;99.90
46976;DHT22;32724;51.094;6.996;2022-10-17T00:18:36;15.90;99.90
46976;DHT22;32724;51.094;6.996;2022-10-17T00:21:01;16.00;99.90
46976;DHT22;32724;51.094;6.996;2022-10-17T00:23:27;16.00;99.90
46976;DHT22;32724;51.094;6.996;2022-10-17T00:26:00;16.00;99.90
46976;DHT22;32724;51.094;6.996;2022-10-17T00:28:26;16.10;99.90
46976;DHT22;32724;51.094;6.996;2022-10-17T00:30:58;16.10;99.90
46976;DHT22;32724;51.094;6.996;2022-10-17T00:33:24;16.20;99.90
46976;DHT22;32724;51.094;6.996;2022-10-17T00:35:50;16.20;99.90
46976;DHT22;32724;51.094;6.996;2022-10-17T00:38:16;16.30;99.90
46976;DHT22;32724;51.094;6.996;2022-10-17T00:40:41;16.40;99.90
46976;DHT22;32724;51.094;6.996;2022-10-17T00:43:14;16.40;99.90
46976;DHT22;32724;51.094;6.996;2022-10-17T00:45:39;16.50;99.90
46976;DHT22;32724;51.094;6.996;2022-10-17T00:48:06;16.50;99.90
46976;DHT22;32724;51.094;6.996;2022-10-17T00:50:33;16.50;99.90
46976;DHT22;32724;51.094;6.996;2022-10-17T00:53:00;16.60;99.90
46976;DHT22;32724;51.094;6.996;2022-10-17T00:55:27;16.60;99.90
46976;DHT22;32724;51.094;6.996;2022-10-17T00:57:55;16.70;99.90
46976;DHT22;32724;51.094;6.996;2022-10-17T01:00:21;16.70;99.90
46976;DHT22;32724;51.094;6.996;2022-10-17T01:02:48;16.70;99.90
46976;DHT22;32724;51.094;6.996;2022-10-17T01:05:14;16.70;99.90
46976;DHT22;32724;51.094;6.996;2022-10-17T01:07:39;16.70;99.90
46976;DHT22;32724;51.094;6.996;2022-10-17T01:10:06;16.70;99.90
46976;DHT22;32724;51.094;6.996;2022-10-17T01:12:38;16.80;99.90
46976;DHT22;32724;51.094;6.996;2022-10-17T01:15:11;16.80;99.90
46976;DHT22;32724;51.094;6.996;2022-10-17T01:28:09;16.60;99.90
46976;DHT22;32724;51.094;6.996;2022-10-17T01:30:55;16.50;99.90
46976;DHT22;32724;51.094;6.996;2022-10-17T01:38:48;16.40;99.90
46976;DHT22;32724;51.094;6.996;2022-10-17T01:41:18;16.50;99.90
46976;DHT22;32724;51.094;6.996;2022-10-17T01:43:48;16.50;99.90
46976;DHT22;32724;51.094;6.996;2022-10-17T01:46:27;16.50;99.90
46976;DHT22;32724;51.094;6.996;2022-10-17T01:48:54;16.50;99.90
46976;DHT22;32724;51.094;6.996;2022-10-17T01:51:26;16.50;99.90
46976;DHT22;32724;51.094;6.996;2022-10-17T01:56:36;16.50;99.90
46976;DHT22;32724;51.094;6.996;2022-10-17T01:59:14;16.50;99.90
46976;DHT22;32724;51.094;6.996;2022-10-17T02:01:41;16.50;99.90
46976;DHT22;32724;51.094;6.996;2022-10-17T02:04:08;16.70;99.90
46976;DHT22;32724;51.094;6.996;2022-10-17T02:06:35;16.80;99.90
46976;DHT22;32724;51.094;6.996;2022-10-17T02:09:00;16.80;99.90
46976;DHT22;32724;51.094;6.996;2022-10-17T02:11:26;16.80;99.90
46976;DHT22;32724;51.094;6.996;2022-10-17T02:16:27;16.80;99.90
46976;DHT22;32724;51.094;6.996;2022-10-17T02:21:33;16.80;99.90
46976;DHT22;32724;51.094;6.996;2022-10-17T02:26:50;16.80;99.90
46976;DHT22;32724;51.094;6.996;2022-10-17T02:29:42;16.80;99.90
46976;DHT22;32724;51.094;6.996;2022-10-17T02:32:04;16.80;99.90
46976;DHT22;32724;51.094;6.996;2022-10-17T02:34:35;16.80;99.90
46976;DHT22;32724;51.094;6.996;2022-10-17T02:37:04;16.80;99.90
46976;DHT22;32724;51.094;6.996;2022-10-17T02:39:30;16.90;99.90
46976;DHT22;32724;51.094;6.996;2022-10-17T02:41:56;16.90;99.90
46976;DHT22;32724;51.094;6.996;2022-10-17T02:44:23;16.90;99.90
46976;DHT22;32724;51.094;6.996;2022-10-17T02:46:52;16.90;99.90
46976;DHT22;32724;51.094;6.996;2022-10-17T02:49:20;16.80;99.90
46976;DHT22;32724;51.094;6.996;2022-10-17T02:54:23;16.80;99.90
46976;DHT22;32724;51.094;6.996;2022-10-17T02:56:59;16.80;99.90
46976;DHT22;32724;51.094;6.996;2022-10-17T02:59:25;16.80;99.90
46976;DHT22;32724;51.094;6.996;2022-10-17T03:01:53;16.80;99.90
46976;DHT22;32724;51.094;6.996;2022-10-17T03:04:18;16.70;99.90
46976;DHT22;32724;51.094;6.996;2022-10-17T03:06:45;16.70;99.90
46976;DHT22;32724;51.094;6.996;2022-10-17T03:09:11;16.80;99.90
46976;DHT22;32724;51.094;6.996;2022-10-17T03:11:37;16.80;99.90
46976;DHT22;32724;51.094;6.996;2022-10-17T03:14:02;16.80;99.90
46976;DHT22;32724;51.094;6.996;2022-10-17T03:16:28;16.80;99.90
46976;DHT22;32724;51.094;6.996;2022-10-17T03:18:53;16.80;99.90
46976;DHT22;32724;51.094;6.996;2022-10-17T03:21:19;16.80;99.90
46976;DHT22;32724;51.094;6.996;2022-10-17T03:23:44;16.90;99.90
46976;DHT22;32724;51.094;6.996;2022-10-17T03:26:10;16.90;99.90
46976;DHT22;32724;51.094;6.996;2022-10-17T03:28:35;17.00;99.90
46976;DHT22;32724;51.094;6.996;2022-10-17T03:31:07;17.00;99.90
46976;DHT22;32724;51.094;6.996;2022-10-17T03:33:33;17.10;99.90
46976;DHT22;32724;51.094;6.996;2022-10-17T03:35:58;17.10;99.90
46976;DHT22;32724;51.094;6.996;2022-10-17T03:38:24;17.10;99.90
46976;DHT22;32724;51.094;6.996;2022-10-17T03:40:55;17.00;99.90
46976;DHT22;32724;51.094;6.996;2022-10-17T03:43:21;17.00;99.90
46976;DHT22;32724;51.094;6.996;2022-10-17T03:45:46;17.00;99.90
46976;DHT22;32724;51.094;6.996;2022-10-17T03:48:12;17.00;99.90
46976;DHT22;32724;51.094;6.996;2022-10-17T03:50:37;17.00;99.90
46976;DHT22;32724;51.094;6.996;2022-10-17T03:53:02;17.00;99.90
46976;DHT22;32724;51.094;6.996;2022-10-17T03:55:28;16.90;99.90
46976;DHT22;32724;51.094;6.996;2022-10-17T03:57:53;16.90;99.90
46976;DHT22;32724;51.094;6.996;2022-10-17T04:00:19;17.00;99.90
46976;DHT22;32724;51.094;6.996;2022-10-17T04:02:44;17.00;99.90
46976;DHT22;32724;51.094;6.996;2022-10-17T04:05:10;17.00;99.90
46976;DHT22;32724;51.094;6.996;2022-10-17T04:07:35;17.00;99.90
46976;DHT22;32724;51.094;6.996;2022-10-17T04:10:04;17.00;99.90
46976;DHT22;32724;51.094;6.996;2022-10-17T04:12:29;17.00;99.90
46976;DHT22;32724;51.094;6.996;2022-10-17T04:14:55;17.00;99.90
46976;DHT22;32724;51.094;6.996;2022-10-17T04:17:20;17.10;99.90
46976;DHT22;32724;51.094;6.996;2022-10-17T04:19:47;17.10;99.90
46976;DHT22;32724;51.094;6.996;2022-10-17T04:22:13;17.10;99.90
46976;DHT22;32724;51.094;6.996;2022-10-17T04:24:38;17.00;99.90
46976;DHT22;32724;51.094;6.996;2022-10-17T04:27:03;17.00;99.90
46976;DHT22;32724;51.094;6.996;2022-10-17T04:29:29;17.00;99.90
46976;DHT22;32724;51.094;6.996;2022-10-17T04:31:54;16.90;99.90
46976;DHT22;32724;51.094;6.996;2022-10-17T04:34:20;17.00;99.90
46976;DHT22;32724;51.094;6.996;2022-10-17T04:36:45;17.00;99.90
46976;DHT22;32724;51.094;6.996;2022-10-17T04:39:11;16.90;99.90
46976;DHT22;32724;51.094;6.996;2022-10-17T04:41:37;16.90;99.90
46976;DHT22;32724;51.094;6.996;2022-10-17T04:44:02;16.90;99.90
46976;DHT22;32724;51.094;6.996;2022-10-17T04:46:28;16.90;99.90
46976;DHT22;32724;51.094;6.996;2022-10-17T04:48:53;16.90;99.90
46976;DHT22;32724;51.094;6.996;2022-10-17T04:51:19;16.90;99.90
46976;DHT22;32724;51.094;6.996;2022-10-17T04:53:45;16.90;99.90
46976;DHT22;32724;51.094;6.996;2022-10-17T04:56:14;16.80;99.90
46976;DHT22;32724;51.094;6.996;2022-10-17T04:58:40;16.90;99.90
46976;DHT22;32724;51.094;6.996;2022-10-17T05:01:07;16.90;99.90
46976;DHT22;32724;51.094;6.996;2022-10-17T05:03:33;17.00;99.90
46976;DHT22;32724;51.094;6.996;2022-10-17T05:06:01;17.00;99.90
46976;DHT22;32724;51.094;6.996;2022-10-17T05:08:27;17.00;99.90
46976;DHT22;32724;51.094;6.996;2022-10-17T05:10:52;17.10;99.90
46976;DHT22;32724;51.094;6.996;2022-10-17T05:13:18;17.10;99.90
46976;DHT22;32724;51.094;6.996;2022-10-17T05:15:43;17.10;99.90
46976;DHT22;32724;51.094;6.996;2022-10-17T05:18:09;17.10;99.90
46976;DHT22;32724;51.094;6.996;2022-10-17T05:20:35;17.10;99.90
46976;DHT22;32724;51.094;6.996;2022-10-17T05:23:00;17.10;99.90
46976;DHT22;32724;51.094;6.996;2022-10-17T05:25:26;17.20;99.90
46976;DHT22;32724;51.094;6.996;2022-10-17T05:27:52;17.10;99.90
46976;DHT22;32724;51.094;6.996;2022-10-17T05:30:17;17.10;99.90
46976;DHT22;32724;51.094;6.996;2022-10-17T05:32:43;17.10;99.90
46976;DHT22;32724;51.094;6.996;2022-10-17T05:35:08;17.00;99.90
46976;DHT22;32724;51.094;6.996;2022-10-17T05:37:34;17.10;99.90
46976;DHT22;32724;51.094;6.996;2022-10-17T05:39:59;17.10;99.90
46976;DHT22;32724;51.094;6.996;2022-10-17T05:42:25;17.10;99.90
46976;DHT22;32724;51.094;6.996;2022-10-17T05:44:50;17.10;99.90
46976;DHT22;32724;51.094;6.996;2022-10-17T05:47:16;17.10;99.90
46976;DHT22;32724;51.094;6.996;2022-10-17T05:49:41;17.20;99.90
46976;DHT22;32724;51.094;6.996;2022-10-17T05:52:07;17.20;99.90
46976;DHT22;32724;51.094;6.996;2022-10-17T05:54:32;17.10;99.90
46976;DHT22;32724;51.094;6.996;2022-10-17T05:56:57;17.10;99.90
46976;DHT22;32724;51.094;6.996;2022-10-17T05:59:23;17.00;99.90
46976;DHT22;32724;51.094;6.996;2022-10-17T06:01:49;17.00;99.90
46976;DHT22;32724;51.094;6.996;2022-10-17T06:04:14;17.00;99.90
46976;DHT22;32724;51.094;6.996;2022-10-17T06:06:40;17.00;99.90
46976;DHT22;32724;51.094;6.996;2022-10-17T06:09:05;16.90;99.90
46976;DHT22;32724;51.094;6.996;2022-10-17T06:11:32;17.00;99.90
46976;DHT22;32724;51.094;6.996;2022-10-17T06:13:58;17.00;99.90
46976;DHT22;32724;51.094;6.996;2022-10-17T06:16:23;16.90;99.90
46976;DHT22;32724;51.094;6.996;2022-10-17T06:18:49;16.80;99.90
46976;DHT22;32724;51.094;6.996;2022-10-17T06:21:16;16.80;99.90
46976;DHT22;32724;51.094;6.996;2022-10-17T06:23:43;16.80;99.90
46976;DHT22;32724;51.094;6.996;2022-10-17T06:26:08;16.90;99.90
46976;DHT22;32724;51.094;6.996;2022-10-17T06:28:34;17.00;99.90
46976;DHT22;32724;51.094;6.996;2022-10-17T06:31:18;17.00;99.90
46976;DHT22;32724;51.094;6.996;2022-10-17T06:33:43;17.00;99.90
46976;DHT22;32724;51.094;6.996;2022-10-17T06:36:10;17.00;99.90
46976;DHT22;32724;51.094;6.996;2022-10-17T06:38:36;17.10;99.90
46976;DHT22;32724;51.094;6.996;2022-10-17T06:41:02;17.10;99.90
46976;DHT22;32724;51.094;6.996;2022-10-17T06:43:28;17.10;99.90
46976;DHT22;32724;51.094;6.996;2022-10-17T06:45:53;17.10;99.90
46976;DHT22;32724;51.094;6.996;2022-10-17T06:48:19;17.10;99.90
46976;DHT22;32724;51.094;6.996;2022-10-17T06:50:44;17.10;99.90
46976;DHT22;32724;51.094;6.996;2022-10-17T06:53:10;17.10;99.90
46976;DHT22;32724;51.094;6.996;2022-10-17T06:55:35;17.10;99.90
46976;DHT22;32724;51.094;6.996;2022-10-17T06:58:01;17.20;99.90
46976;DHT22;32724;51.094;6.996;2022-10-17T07:00:26;17.20;99.90
46976;DHT22;32724;51.094;6.996;2022-10-17T07:02:52;17.20;99.90
46976;DHT22;32724;51.094;6.996;2022-10-17T07:05:18;17.30;99.90
46976;DHT22;32724;51.094;6.996;2022-10-17T07:07:44;17.30;99.90
46976;DHT22;32724;51.094;6.996;2022-10-17T07:10:10;17.40;99.90
46976;DHT22;32724;51.094;6.996;2022-10-17T07:12:36;17.50;99.90
46976;DHT22;32724;51.094;6.996;2022-10-17T07:15:03;17.60;99.90
46976;DHT22;32724;51.094;6.996;2022-10-17T07:17:29;17.70;99.90
46976;DHT22;32724;51.094;6.996;2022-10-17T07:19:55;17.70;99.90
46976;DHT22;32724;51.094;6.996;2022-10-17T07:22:20;17.70;99.90
46976;DHT22;32724;51.094;6.996;2022-10-17T07:24:46;17.70;99.90
46976;DHT22;32724;51.094;6.996;2022-10-17T07:27:12;17.80;99.90
46976;DHT22;32724;51.094;6.996;2022-10-17T07:29:37;17.80;99.90
46976;DHT22;32724;51.094;6.996;2022-10-17T07:32:03;17.80;99.90
46976;DHT22;32724;51.094;6.996;2022-10-17T07:34:35;17.80;99.90
46976;DHT22;32724;51.094;6.996;2022-10-17T07:37:01;17.80;99.90
46976;DHT22;32724;51.094;6.996;2022-10-17T07:39:27;17.90;99.90
46976;DHT22;32724;51.094;6.996;2022-10-17T07:41:52;17.90;99.90
46976;DHT22;32724;51.094;6.996;2022-10-17T07:44:18;17.90;99.90
46976;DHT22;32724;51.094;6.996;2022-10-17T07:46:43;18.10;99.90
46976;DHT22;32724;51.094;6.996;2022-10-17T07:49:09;18.20;99.90
46976;DHT22;32724;51.094;6.996;2022-10-17T07:51:34;18.20;99.90
46976;DHT22;32724;51.094;6.996;2022-10-17T07:54:00;18.30;99.90
46976;DHT22;32724;51.094;6.996;2022-10-17T07:56:25;18.40;99.90
46976;DHT22;32724;51.094;6.996;2022-10-17T07:58:51;18.50;99.90
46976;DHT22;32724;51.094;6.996;2022-10-17T08:01:17;18.60;99.90
46976;DHT22;32724;51.094;6.996;2022-10-17T08:03:43;18.60;99.90
46976;DHT22;32724;51.094;6.996;2022-10-17T08:06:10;18.80;99.90
46976;DHT22;32724;51.094;6.996;2022-10-17T08:08:35;18.90;99.90
46976;DHT22;32724;51.094;6.996;2022-10-17T08:11:05;19.00;99.90
46976;DHT22;32724;51.094;6.996;2022-10-17T08:13:31;19.00;99.90
46976;DHT22;32724;51.094;6.996;2022-10-17T08:16:00;19.00;99.90
46976;DHT22;32724;51.094;6.996;2022-10-17T08:18:26;19.20;99.90
46976;DHT22;32724;51.094;6.996;2022-10-17T08:20:51;19.30;99.90
46976;DHT22;32724;51.094;6.996;2022-10-17T08:23:17;19.40;99.90
46976;DHT22;32724;51.094;6.996;2022-10-17T08:25:42;19.40;99.90
46976;DHT22;32724;51.094;6.996;2022-10-17T08:28:08;19.50;99.90
46976;DHT22;32724;51.094;6.996;2022-10-17T08:30:33;19.60;99.90
46976;DHT22;32724;51.094;6.996;2022-10-17T08:32:59;19.70;99.90
46976;DHT22;32724;51.094;6.996;2022-10-17T08:35:24;19.70;99.90
46976;DHT22;32724;51.094;6.996;2022-10-17T08:37:50;19.70;99.90
46976;DHT22;32724;51.094;6.996;2022-10-17T08:40:20;19.70;99.90
46976;DHT22;32724;51.094;6.996;2022-10-17T08:43:05;19.70;99.90
46976;DHT22;32724;51.094;6.996;2022-10-17T08:45:57;19.80;99.90
46976;DHT22;32724;51.094;6.996;2022-10-17T08:48:24;19.80;99.90
46976;DHT22;32724;51.094;6.996;2022-10-17T08:53:36;19.80;99.90
46976;DHT22;32724;51.094;6.996;2022-10-17T08:56:22;19.90;99.90
46976;DHT22;32724;51.094;6.996;2022-10-17T08:58:48;19.80;99.90
46976;DHT22;32724;51.094;6.996;2022-10-17T09:06:27;19.80;99.90
46976;DHT22;32724;51.094;6.996;2022-10-17T09:09:03;19.80;99.90
46976;DHT22;32724;51.094;6.996;2022-10-17T09:19:10;20.00;99.90
46976;DHT22;32724;51.094;6.996;2022-10-17T09:21:48;20.00;99.90
46976;DHT22;32724;51.094;6.996;2022-10-17T09:25:02;20.00;99.90
46976;DHT22;32724;51.094;6.996;2022-10-17T09:27:02;19.90;99.90
46976;DHT22;32724;51.094;6.996;2022-10-17T09:29:28;19.90;99.90
46976;DHT22;32724;51.094;6.996;2022-10-17T09:31:56;19.90;99.90
46976;DHT22;32724;51.094;6.996;2022-10-17T09:34:22;19.90;99.90
46976;DHT22;32724;51.094;6.996;2022-10-17T09:36:49;20.00;99.90
46976;DHT22;32724;51.094;6.996;2022-10-17T09:39:18;20.10;99.90
46976;DHT22;32724;51.094;6.996;2022-10-17T09:41:48;20.20;99.90
46976;DHT22;32724;51.094;6.996;2022-10-17T09:49:40;20.40;99.90
46976;DHT22;32724;51.094;6.996;2022-10-17T09:52:26;20.50;99.90
46976;DHT22;32724;51.094;6.996;2022-10-17T09:55:16;20.50;99.90
46976;DHT22;32724;51.094;6.996;2022-10-17T09:57:52;20.40;99.90
46976;DHT22;32724;51.094;6.996;2022-10-17T10:01:13;20.40;99.90
46976;DHT22;32724;51.094;6.996;2022-10-17T10:03:17;20.30;99.90
46976;DHT22;32724;51.094;6.996;2022-10-17T10:06:05;20.40;99.90
46976;DHT22;32724;51.094;6.996;2022-10-17T10:08:51;20.30;99.90
46976;DHT22;32724;51.094;6.996;2022-10-17T10:11:15;20.30;99.90
46976;DHT22;32724;51.094;6.996;2022-10-17T10:13:42;20.20;99.90
46976;DHT22;32724;51.094;6.996;2022-10-17T10:16:29;20.10;99.90
46976;DHT22;32724;51.094;6.996;2022-10-17T10:18:55;20.00;99.90
46976;DHT22;32724;51.094;6.996;2022-10-17T10:21:21;20.10;99.90
46976;DHT22;32724;51.094;6.996;2022-10-17T10:26:38;20.20;99.90
46976;DHT22;32724;51.094;6.996;2022-10-17T10:29:06;20.20;99.90
46976;DHT22;32724;51.094;6.996;2022-10-17T10:31:43;20.30;99.90
46976;DHT22;32724;51.094;6.996;2022-10-17T10:34:25;20.50;99.90
46976;DHT22;32724;51.094;6.996;2022-10-17T10:36:53;20.60;99.90
46976;DHT22;32724;51.094;6.996;2022-10-17T10:39:43;20.40;99.90
46976;DHT22;32724;51.094;6.996;2022-10-17T10:42:06;20.30;99.90
46976;DHT22;32724;51.094;6.996;2022-10-17T10:44:33;20.40;99.90
46976;DHT22;32724;51.094;6.996;2022-10-17T10:49:31;20.30;99.90
46976;DHT22;32724;51.094;6.996;2022-10-17T10:51:57;20.30;99.90
46976;DHT22;32724;51.094;6.996;2022-10-17T10:54:28;20.40;99.90
46976;DHT22;32724;51.094;6.996;2022-10-17T10:56:57;20.40;99.90
46976;DHT22;32724;51.094;6.996;2022-10-17T10:59:24;20.50;99.90
46976;DHT22;32724;51.094;6.996;2022-10-17T11:01:55;20.70;99.90
46976;DHT22;32724;51.094;6.996;2022-10-17T11:06:52;20.70;99.90
46976;DHT22;32724;51.094;6.996;2022-10-17T11:09:25;20.80;99.90
46976;DHT22;32724;51.094;6.996;2022-10-17T11:11:57;20.80;99.90
46976;DHT22;32724;51.094;6.996;2022-10-17T11:17:04;20.90;99.90
46976;DHT22;32724;51.094;6.996;2022-10-17T11:19:34;20.90;99.90
46976;DHT22;32724;51.094;6.996;2022-10-17T11:22:06;20.80;99.90
46976;DHT22;32724;51.094;6.996;2022-10-17T11:24:37;20.70;99.90
46976;DHT22;32724;51.094;6.996;2022-10-17T11:27:05;20.60;99.90
46976;DHT22;32724;51.094;6.996;2022-10-17T11:29:31;20.50;99.90
46976;DHT22;32724;51.094;6.996;2022-10-17T11:31:59;20.50;99.90
46976;DHT22;32724;51.094;6.996;2022-10-17T11:34:26;20.50;99.90
46976;DHT22;32724;51.094;6.996;2022-10-17T11:36:58;20.50;99.90
46976;DHT22;32724;51.094;6.996;2022-10-17T11:39:28;20.50;99.90
46976;DHT22;32724;51.094;6.996;2022-10-17T11:42:05;20.50;99.90
46976;DHT22;32724;51.094;6.996;2022-10-17T11:44:40;20.50;99.90
46976;DHT22;32724;51.094;6.996;2022-10-17T11:47:25;20.40;99.90
46976;DHT22;32724;51.094;6.996;2022-10-17T11:49:53;20.40;99.90
46976;DHT22;32724;51.094;6.996;2022-10-17T11:54:54;20.60;99.90
46976;DHT22;32724;51.094;6.996;2022-10-17T11:57:34;20.60;99.90
46976;DHT22;32724;51.094;6.996;2022-10-17T12:02:59;20.70;99.90
46976;DHT22;32724;51.094;6.996;2022-10-17T12:05:40;20.70;99.90
46976;DHT22;32724;51.094;6.996;2022-10-17T12:08:19;20.70;99.90
46976;DHT22;32724;51.094;6.996;2022-10-17T12:10:54;20.80;99.90
46976;DHT22;32724;51.094;6.996;2022-10-17T12:15:51;20.90;99.90
46976;DHT22;32724;51.094;6.996;2022-10-17T12:18:17;21.00;99.90
46976;DHT22;32724;51.094;6.996;2022-10-17T12:20:42;21.10;99.90
46976;DHT22;32724;51.094;6.996;2022-10-17T12:23:20;20.90;99.90
46976;DHT22;32724;51.094;6.996;2022-10-17T12:33:20;21.00;99.90
46976;DHT22;32724;51.094;6.996;2022-10-17T12:36:35;21.10;99.90
46976;DHT22;32724;51.094;6.996;2022-10-17T12:38:36;21.00;99.90
46976;DHT22;32724;51.094;6.996;2022-10-17T12:41:01;21.10;99.90
46976;DHT22;32724;51.094;6.996;2022-10-17T12:45:53;21.00;99.90
46976;DHT22;32724;51.094;6.996;2022-10-17T12:56:11;20.90;99.90
46976;DHT22;32724;51.094;6.996;2022-10-17T12:58:39;20.90;99.90
46976;DHT22;32724;51.094;6.996;2022-10-17T13:01:08;20.80;99.90
46976;DHT22;32724;51.094;6.996;2022-10-17T13:03:42;20.80;99.90
46976;DHT22;32724;51.094;6.996;2022-10-17T13:06:21;20.80;99.90
46976;DHT22;32724;51.094;6.996;2022-10-17T13:08:49;20.90;99.90
46976;DHT22;32724;51.094;6.996;2022-10-17T13:11:19;20.90;99.90
46976;DHT22;32724;51.094;6.996;2022-10-17T13:13:47;20.90;99.90
46976;DHT22;32724;51.094;6.996;2022-10-17T13:18:58;21.00;99.90
46976;DHT22;32724;51.094;6.996;2022-10-17T13:21:24;21.10;99.90
46976;DHT22;32724;51.094;6.996;2022-10-17T13:23:50;21.10;99.90
46976;DHT22;32724;51.094;6.996;2022-10-17T13:26:35;21.10;99.90
46976;DHT22;32724;51.094;6.996;2022-10-17T13:29:01;21.10;99.90
46976;DHT22;32724;51.094;6.996;2022-10-17T13:31:34;21.10;99.90
46976;DHT22;32724;51.094;6.996;2022-10-17T13:34:01;21.10;99.90
46976;DHT22;32724;51.094;6.996;2022-10-17T13:36:28;21.10;99.90
46976;DHT22;32724;51.094;6.996;2022-10-17T13:38:53;21.10;99.90
46976;DHT22;32724;51.094;6.996;2022-10-17T13:41:23;21.00;99.90
46976;DHT22;32724;51.094;6.996;2022-10-17T13:43:49;21.00;99.90
46976;DHT22;32724;51.094;6.996;2022-10-17T13:46:17;21.00;99.90
46976;DHT22;32724;51.094;6.996;2022-10-17T13:48:44;21.00;99.90
46976;DHT22;32724;51.094;6.996;2022-10-17T13:51:10;21.00;99.90
46976;DHT22;32724;51.094;6.996;2022-10-17T13:53:37;21.00;99.90
46976;DHT22;32724;51.094;6.996;2022-10-17T13:58:41;20.90;99.90
46976;DHT22;32724;51.094;6.996;2022-10-17T14:01:07;20.80;99.90
46976;DHT22;32724;51.094;6.996;2022-10-17T14:03:33;20.80;99.90
46976;DHT22;32724;51.094;6.996;2022-10-17T14:05:59;20.90;99.90
46976;DHT22;32724;51.094;6.996;2022-10-17T14:08:27;20.90;99.90
46976;DHT22;32724;51.094;6.996;2022-10-17T14:10:52;21.00;99.90
46976;DHT22;32724;51.094;6.996;2022-10-17T14:13:22;21.10;99.90
46976;DHT22;32724;51.094;6.996;2022-10-17T14:15:48;21.20;99.90
46976;DHT22;32724;51.094;6.996;2022-10-17T14:18:19;21.30;99.90
46976;DHT22;32724;51.094;6.996;2022-10-17T14:20:45;21.40;99.90
46976;DHT22;32724;51.094;6.996;2022-10-17T14:23:45;21.30;99.90
46976;DHT22;32724;51.094;6.996;2022-10-17T14:26:13;21.30;99.90
46976;DHT22;32724;51.094;6.996;2022-10-17T14:28:40;21.30;99.90
46976;DHT22;32724;51.094;6.996;2022-10-17T14:31:27;21.40;99.90
46976;DHT22;32724;51.094;6.996;2022-10-17T14:33:53;21.40;99.90
46976;DHT22;32724;51.094;6.996;2022-10-17T14:36:20;21.40;99.90
46976;DHT22;32724;51.094;6.996;2022-10-17T14:38:47;21.40;99.90
46976;DHT22;32724;51.094;6.996;2022-10-17T14:41:24;21.40;99.90
46976;DHT22;32724;51.094;6.996;2022-10-17T14:43:51;21.40;99.90
46976;DHT22;32724;51.094;6.996;2022-10-17T14:46:17;21.30;99.90
46976;DHT22;32724;51.094;6.996;2022-10-17T14:48:42;21.20;99.90
46976;DHT22;32724;51.094;6.996;2022-10-17T14:51:09;21.20;99.90
46976;DHT22;32724;51.094;6.996;2022-10-17T14:53:35;21.10;99.90
46976;DHT22;32724;51.094;6.996;2022-10-17T14:56:02;21.10;99.90
46976;DHT22;32724;51.094;6.996;2022-10-17T14:58:29;21.10;99.90
46976;DHT22;32724;51.094;6.996;2022-10-17T15:00:58;21.10;99.90
46976;DHT22;32724;51.094;6.996;2022-10-17T15:03:24;21.00;99.90
46976;DHT22;32724;51.094;6.996;2022-10-17T15:05:49;21.00;99.90
46976;DHT22;32724;51.094;6.996;2022-10-17T15:08:16;20.90;99.90
46976;DHT22;32724;51.094;6.996;2022-10-17T15:10:42;20.90;99.90
46976;DHT22;32724;51.094;6.996;2022-10-17T15:13:08;20.90;99.90
46976;DHT22;32724;51.094;6.996;2022-10-17T15:15:34;20.90;99.90
46976;DHT22;32724;51.094;6.996;2022-10-17T15:18:00;20.90;99.90
46976;DHT22;32724;51.094;6.996;2022-10-17T15:20:26;20.90;99.90
46976;DHT22;32724;51.094;6.996;2022-10-17T15:22:53;20.90;99.90
46976;DHT22;32724;51.094;6.996;2022-10-17T15:25:19;20.80;99.90
46976;DHT22;32724;51.094;6.996;2022-10-17T15:27:45;20.70;99.90
46976;DHT22;32724;51.094;6.996;2022-10-17T15:30:20;20.60;99.90
46976;DHT22;32724;51.094;6.996;2022-10-17T15:32:46;20.50;99.90
46976;DHT22;32724;51.094;6.996;2022-10-17T15:35:11;20.50;99.90
46976;DHT22;32724;51.094;6.996;2022-10-17T15:37:37;20.40;99.90
46976;DHT22;32724;51.094;6.996;2022-10-17T15:40:04;20.30;99.90
46976;DHT22;32724;51.094;6.996;2022-10-17T15:42:29;20.30;99.90
46976;DHT22;32724;51.094;6.996;2022-10-17T15:44:55;20.20;99.90
46976;DHT22;32724;51.094;6.996;2022-10-17T15:47:22;20.10;99.90
46976;DHT22;32724;51.094;6.996;2022-10-17T15:49:48;20.10;99.90
46976;DHT22;32724;51.094;6.996;2022-10-17T15:52:14;20.10;99.90
46976;DHT22;32724;51.094;6.996;2022-10-17T15:54:39;20.00;99.90
46976;DHT22;32724;51.094;6.996;2022-10-17T15:57:05;19.90;99.90
46976;DHT22;32724;51.094;6.996;2022-10-17T15:59:31;19.90;99.90
46976;DHT22;32724;51.094;6.996;2022-10-17T16:01:57;19.90;99.90
46976;DHT22;32724;51.094;6.996;2022-10-17T16:04:23;19.90;99.90
46976;DHT22;32724;51.094;6.996;2022-10-17T16:06:51;19.90;99.90
46976;DHT22;32724;51.094;6.996;2022-10-17T16:09:16;19.90;99.90
46976;DHT22;32724;51.094;6.996;2022-10-17T16:11:42;19.90;99.90
46976;DHT22;32724;51.094;6.996;2022-10-17T16:14:14;19.80;99.90
46976;DHT22;32724;51.094;6.996;2022-10-17T16:16:40;19.80;99.90
46976;DHT22;32724;51.094;6.996;2022-10-17T16:19:06;19.70;99.90
46976;DHT22;32724;51.094;6.996;2022-10-17T16:21:33;19.60;99.90
46976;DHT22;32724;51.094;6.996;2022-10-17T16:23:58;19.40;99.90
46976;DHT22;32724;51.094;6.996;2022-10-17T16:26:25;19.20;99.90
46976;DHT22;32724;51.094;6.996;2022-10-17T16:28:50;18.90;99.90
46976;DHT22;32724;51.094;6.996;2022-10-17T16:31:20;18.70;99.90
46976;DHT22;32724;51.094;6.996;2022-10-17T16:33:47;18.50;99.90
46976;DHT22;32724;51.094;6.996;2022-10-17T16:36:12;18.30;99.90
46976;DHT22;32724;51.094;6.996;2022-10-17T16:38:38;18.20;99.90
46976;DHT22;32724;51.094;6.996;2022-10-17T16:41:04;18.10;99.90
46976;DHT22;32724;51.094;6.996;2022-10-17T16:43:29;18.10;99.90
46976;DHT22;32724;51.094;6.996;2022-10-17T16:46:02;18.00;99.90
46976;DHT22;32724;51.094;6.996;2022-10-17T16:48:27;17.90;99.90
46976;DHT22;32724;51.094;6.996;2022-10-17T16:50:53;17.90;99.90
46976;DHT22;32724;51.094;6.996;2022-10-17T16:53:18;17.90;99.90
46976;DHT22;32724;51.094;6.996;2022-10-17T16:55:43;17.80;99.90
46976;DHT22;32724;51.094;6.996;2022-10-17T16:58:09;17.80;99.90
46976;DHT22;32724;51.094;6.996;2022-10-17T17:00:34;17.70;99.90
46976;DHT22;32724;51.094;6.996;2022-10-17T17:03:03;17.70;99.90
46976;DHT22;32724;51.094;6.996;2022-10-17T17:05:28;17.70;99.90
46976;DHT22;32724;51.094;6.996;2022-10-17T17:07:54;17.70;99.90